Key Lake Airport
CYKJ : now visible

Airfield :











YOU CAN JOIN US ON...

 
LOGIN :

Register | Disclaimer

   EN    FR    IT 

 









Legend :    VFR   Marginal VFR   IFR   Intensive IFR   Very Intensive IFR
Visi :
Ceiling :
>= 8 km
>= 3000ft
5 to 8 km
1000 to 3000 ft
1500m to 5 km
500 to 1000 ft
800 to 1500m
200 to 500 ft
< 800m
< 200 ft
Symbols :   Thunderstorms  Fog  Heavy snow  Heavy precipitations  Wind > 20 kt






- Airport Elevation : 1679 ft
- IATA code : YKJ


CYKJ - Key Lake

CURRENT METAR :
  • 241800Z AUTO VRB03KT 9SM CLR 06/M07 A3008 RMK SLP218

EXPIRED METARs :
  • 241700Z AUTO 32006KT 240V040 9SM CLR 05/M05 A3009 RMK SLP220
  • 241600Z AUTO VRB03KT 9SM FEW037 04/M05 A3010 RMK SLP220
  • 241500Z AUTO 35005KT 240V020 9SM 03/M05 A3010 RMK CLD MISG SLP221

TAF AMD TAF CYKJ
Valid from the 24 at 17:00 until the 25 at 00:00 UTC


241720Z 2417/2424 32006KT P6SM SCT260
BECMG 2418/2420 17008KT
FM242200 17008KT P6SM BKN100 RMK FCST BASED ON AUTO OBS. NXT FCST BY 241900Z
CZEG FIR / North America



MET'MAP, your aeronautical weather chart ! - Copyright ORBIFLY December 2007 - Disclaimer

ORBIFLY MET'MAP TEAM :

Programming & Development : Alexandra Zaïnal
Original concept : Baudouin d'Aumeries
Technical & hardware support : Manuel Goepfert
Assistance : Marc-Olivier Méhu

Contact : metmap@orbifly.com




SOURCES & CREDITS :

   NOAA       Earth
Advisory